DGPHX EDDN-ZZZZ

Flight info

Callsign DGPHX
Flight time N/A
Altitude
Route
Aircraft PC12

Departure

Time 2026-05-06 13:16
Airport Nuremberg Airport (EDDN)

Arrival

Time N/A
Airport ZZZZ
Time Latitude Longitude Altitude Speed Heading
2026-05-06 13:11 49.49552 11.07090 1019 ft 5 kts
2026-05-06 13:11 49.49585 11.07157 1020 ft 14 kts 101°
2026-05-06 13:11 49.49634 11.07226 1021 ft 8 kts 50°
2026-05-06 13:11 49.49623 11.07406 1022 ft 24 kts 99°
2026-05-06 13:12 49.49598 11.07645 1023 ft 22 kts 99°
2026-05-06 13:12 49.49578 11.07863 1025 ft 19 kts 96°
2026-05-06 13:12 49.49555 11.08089 1024 ft 24 kts 94°
2026-05-06 13:12 49.49536 11.08333 1027 ft 14 kts 66°
2026-05-06 13:13 49.49610 11.08380 1026 ft 11 kts 49°
2026-05-06 13:13 49.49607 11.08519 1027 ft 17 kts 98°
2026-05-06 13:13 49.49588 11.08713 1029 ft 21 kts 98°
2026-05-06 13:13 49.49570 11.08908 1032 ft 16 kts 98°
2026-05-06 13:14 49.49549 11.09124 1032 ft 27 kts 101°
2026-05-06 13:14 49.49537 11.09367 1037 ft 19 kts 64°
2026-05-06 13:14 49.49616 11.09536 1038 ft 19 kts 49°
2026-05-06 13:14 49.49695 11.09536 1039 ft 13 kts 292°
2026-05-06 13:15 49.49730 11.09194 1036 ft 62 kts 278°
2026-05-06 13:15 49.49819 11.08318 1150 ft 93 kts 279°
2026-05-06 13:15 49.49903 11.07325 1526 ft 91 kts 275°
2026-05-06 13:15 49.50019 11.06206 1605 ft 123 kts 280°
2026-05-06 13:16 49.50148 11.04927 1939 ft 123 kts 262°
2026-05-06 13:16 49.49543 11.04134 2223 ft 129 kts 196°
2026-05-06 13:16 49.48557 11.03766 1978 ft 152 kts 177°
2026-05-06 13:16 49.47893 11.04710 1804 ft 138 kts 103°
2026-05-06 13:17 49.47684 11.05988 1879 ft 118 kts 101°
2026-05-06 13:17 49.47689 11.07307 1784 ft 128 kts 81°
2026-05-06 13:17 49.47785 11.08767 1688 ft 150 kts 89°
2026-05-06 13:17 49.47917 11.10353 1666 ft 152 kts 47°
2026-05-06 13:18 49.48800 11.10788 1556 ft 117 kts
2026-05-06 13:18 49.49483 11.10622 1336 ft 92 kts 320°
2026-05-06 13:18 49.49682 11.09759 1088 ft 81 kts 291°
2026-05-06 13:18 49.49760 11.08937 1030 ft 73 kts 277°
2026-05-06 13:19 49.49836 11.08116 1103 ft 84 kts 275°